DAL8635 KLAX-KSLC
Flight info
| Callsign | DAL8635 |
|---|---|
| Flight time | 1h 22m |
| Altitude | 37000 |
| Route | ORCKA5 LAS Q70 BLIPP Q842 WINEN MLF PITTT2 |
| Aircraft | A321/M-SDE3FGHIRWY/LB1 |
Departure
| Time | 2026-05-03 20:46 |
|---|---|
| Airport | Los Angeles International Airport (KLAX) |
Arrival
| Time | 2026-05-03 22:08 |
|---|---|
| Airport | Salt Lake City International Airport (KSLC) |
| Time | Latitude | Longitude | Altitude | Speed | Heading |
|---|---|---|---|---|---|
| 2026-05-03 20:15 | 33.94728 | -118.40442 | 93 ft | 0 kts | 163° |
| 2026-05-03 20:36 | 33.94729 | -118.40442 | 93 ft | 1 kts | 163° |
| 2026-05-03 20:36 | 33.94752 | -118.40450 | 93 ft | 4 kts | 163° |
| 2026-05-03 20:36 | 33.94772 | -118.40458 | 92 ft | 4 kts | 152° |
| 2026-05-03 20:36 | 33.94789 | -118.40477 | 95 ft | 4 kts | 101° |
| 2026-05-03 20:37 | 33.94789 | -118.40506 | 92 ft | 4 kts | 82° |
| 2026-05-03 20:37 | 33.94787 | -118.40517 | 92 ft | 0 kts | 82° |
| 2026-05-03 20:42 | 33.94788 | -118.40515 | 92 ft | 2 kts | 82° |
| 2026-05-03 20:43 | 33.94797 | -118.40435 | 93 ft | 14 kts | 82° |
| 2026-05-03 20:43 | 33.94812 | -118.40322 | 94 ft | 13 kts | 71° |
| 2026-05-03 20:43 | 33.94879 | -118.40275 | 97 ft | 11 kts | 30° |
| 2026-05-03 20:43 | 33.94907 | -118.40206 | 94 ft | 9 kts | 81° |
| 2026-05-03 20:44 | 33.94912 | -118.40136 | 94 ft | 8 kts | 85° |
| 2026-05-03 20:44 | 33.94921 | -118.40072 | 96 ft | 7 kts | 62° |
| 2026-05-03 20:44 | 33.94963 | -118.40058 | 94 ft | 6 kts | 358° |
| 2026-05-03 20:44 | 33.94996 | -118.40062 | 94 ft | 5 kts | 349° |
| 2026-05-03 20:45 | 33.95026 | -118.40132 | 97 ft | 19 kts | 259° |
| 2026-05-03 20:45 | 33.94981 | -118.40550 | 97 ft | 84 kts | 263° |
| 2026-05-03 20:45 | 33.94887 | -118.41469 | 97 ft | 137 kts | 263° |
| 2026-05-03 20:45 | 33.94751 | -118.42774 | 197 ft | 169 kts | 263° |
| 2026-05-03 20:46 | 33.94604 | -118.44161 | 811 ft | 166 kts | 263° |
| 2026-05-03 20:46 | 33.94456 | -118.45538 | 1426 ft | 166 kts | 262° |
| 2026-05-03 20:46 | 33.94305 | -118.46924 | 1927 ft | 172 kts | 262° |
| 2026-05-03 20:46 | 33.94140 | -118.48432 | 2126 ft | 192 kts | 262° |
| 2026-05-03 20:47 | 33.93953 | -118.50126 | 2267 ft | 216 kts | 262° |
| 2026-05-03 20:47 | 33.93744 | -118.52030 | 2491 ft | 242 kts | 262° |
| 2026-05-03 20:47 | 33.93514 | -118.54112 | 3046 ft | 256 kts | 262° |
| 2026-05-03 20:47 | 33.93275 | -118.56257 | 3851 ft | 261 kts | 262° |
| 2026-05-03 20:48 | 33.93015 | -118.58435 | 4688 ft | 265 kts | 258° |
| 2026-05-03 20:48 | 33.92289 | -118.60473 | 5489 ft | 269 kts | 233° |
| 2026-05-03 20:48 | 33.90888 | -118.61966 | 6284 ft | 273 kts | 207° |
| 2026-05-03 20:48 | 33.89063 | -118.62565 | 7061 ft | 277 kts | 181° |
| 2026-05-03 20:49 | 33.87179 | -118.62109 | 7819 ft | 281 kts | 154° |
| 2026-05-03 20:49 | 33.85647 | -118.60656 | 8550 ft | 285 kts | 127° |
| 2026-05-03 20:49 | 33.84821 | -118.58500 | 9293 ft | 288 kts | 99° |
| 2026-05-03 20:49 | 33.84909 | -118.56103 | 10008 ft | 291 kts | 72° |
| 2026-05-03 20:50 | 33.85892 | -118.53972 | 10551 ft | 301 kts | 51° |
| 2026-05-03 20:50 | 33.87256 | -118.51936 | 10748 ft | 324 kts | 50° |
| 2026-05-03 20:50 | 33.88743 | -118.49811 | 11144 ft | 337 kts | 49° |
| 2026-05-03 20:50 | 33.90277 | -118.47651 | 11791 ft | 342 kts | 49° |
| 2026-05-03 20:51 | 33.91830 | -118.45458 | 12480 ft | 346 kts | 49° |
| 2026-05-03 20:51 | 33.93345 | -118.43190 | 13140 ft | 350 kts | 55° |
| 2026-05-03 20:51 | 33.94735 | -118.40764 | 13795 ft | 353 kts | 55° |
| 2026-05-03 20:51 | 33.96130 | -118.38309 | 14462 ft | 356 kts | 55° |
| 2026-05-03 20:52 | 33.97533 | -118.35831 | 15098 ft | 360 kts | 56° |
| 2026-05-03 20:52 | 33.98948 | -118.33326 | 15721 ft | 363 kts | 56° |
| 2026-05-03 20:52 | 34.00359 | -118.30832 | 16328 ft | 367 kts | 55° |
| 2026-05-03 20:52 | 34.01804 | -118.28282 | 16924 ft | 370 kts | 55° |
| 2026-05-03 20:53 | 34.03263 | -118.25713 | 17502 ft | 373 kts | 55° |
| 2026-05-03 20:53 | 34.04734 | -118.23120 | 18078 ft | 376 kts | 55° |
| 2026-05-03 20:53 | 34.06217 | -118.20502 | 18634 ft | 380 kts | 56° |
| 2026-05-03 20:53 | 34.07710 | -118.17861 | 19175 ft | 383 kts | 56° |
| 2026-05-03 20:54 | 34.09216 | -118.15194 | 19703 ft | 386 kts | 56° |
| 2026-05-03 20:54 | 34.12260 | -118.09796 | 20719 ft | 392 kts | 56° |
| 2026-05-03 20:54 | 34.13799 | -118.07067 | 21204 ft | 395 kts | 56° |
| 2026-05-03 20:55 | 34.15347 | -118.04322 | 21677 ft | 398 kts | 56° |
| 2026-05-03 20:55 | 34.16912 | -118.01550 | 22145 ft | 401 kts | 56° |
| 2026-05-03 20:55 | 34.18489 | -117.98758 | 22570 ft | 404 kts | 56° |
| 2026-05-03 20:55 | 34.20081 | -117.95936 | 22964 ft | 409 kts | 56° |
| 2026-05-03 20:56 | 34.21686 | -117.93084 | 23371 ft | 412 kts | 56° |
| 2026-05-03 20:56 | 34.23302 | -117.90206 | 23760 ft | 416 kts | 56° |
| 2026-05-03 20:56 | 34.24925 | -117.87310 | 24210 ft | 417 kts | 56° |
| 2026-05-03 20:56 | 34.26551 | -117.84403 | 24626 ft | 419 kts | 56° |
| 2026-05-03 20:57 | 34.28190 | -117.81475 | 24986 ft | 422 kts | 56° |
| 2026-05-03 20:57 | 34.29846 | -117.78516 | 25280 ft | 427 kts | 56° |
| 2026-05-03 20:57 | 34.31517 | -117.75528 | 25609 ft | 430 kts | 56° |
| 2026-05-03 20:57 | 34.33197 | -117.72516 | 25948 ft | 433 kts | 56° |
| 2026-05-03 20:58 | 34.34884 | -117.69488 | 26307 ft | 435 kts | 56° |
| 2026-05-03 20:58 | 34.36609 | -117.66455 | 26549 ft | 439 kts | 54° |
| 2026-05-03 20:58 | 34.38387 | -117.63446 | 26879 ft | 441 kts | 54° |
| 2026-05-03 20:58 | 34.40201 | -117.60443 | 27252 ft | 442 kts | 53° |
| 2026-05-03 20:59 | 34.42029 | -117.57444 | 27622 ft | 443 kts | 53° |
| 2026-05-03 20:59 | 34.43862 | -117.54431 | 27972 ft | 445 kts | 53° |
| 2026-05-03 20:59 | 34.45689 | -117.51400 | 28307 ft | 446 kts | 54° |
| 2026-05-03 20:59 | 34.47513 | -117.48348 | 28626 ft | 448 kts | 54° |
| 2026-05-03 21:00 | 34.49338 | -117.45277 | 28936 ft | 450 kts | 54° |
| 2026-05-03 21:00 | 34.49930 | -117.44279 | 29031 ft | 450 kts | 54° |
| 2026-05-03 21:00 | 34.52975 | -117.39130 | 29515 ft | 453 kts | 54° |
| 2026-05-03 21:00 | 34.54838 | -117.35974 | 29797 ft | 455 kts | 54° |
| 2026-05-03 21:01 | 34.56681 | -117.32854 | 30064 ft | 457 kts | 54° |
| 2026-05-03 21:01 | 34.58510 | -117.29758 | 30322 ft | 458 kts | 54° |
| 2026-05-03 21:01 | 34.60374 | -117.26608 | 30572 ft | 460 kts | 54° |
| 2026-05-03 21:01 | 34.62247 | -117.23444 | 30826 ft | 462 kts | 54° |
| 2026-05-03 21:02 | 34.64128 | -117.20266 | 31087 ft | 464 kts | 54° |
| 2026-05-03 21:02 | 34.66014 | -117.17081 | 31414 ft | 464 kts | 54° |
| 2026-05-03 21:02 | 34.67894 | -117.13898 | 31794 ft | 463 kts | 54° |
| 2026-05-03 21:02 | 34.69768 | -117.10717 | 32141 ft | 463 kts | 54° |
| 2026-05-03 21:03 | 34.71638 | -117.07535 | 32478 ft | 462 kts | 54° |
| 2026-05-03 21:03 | 34.73503 | -117.04357 | 32849 ft | 461 kts | 54° |
| 2026-05-03 21:03 | 34.75363 | -117.01188 | 33212 ft | 460 kts | 54° |
| 2026-05-03 21:03 | 34.77220 | -116.98026 | 33562 ft | 459 kts | 54° |
| 2026-05-03 21:04 | 34.78445 | -116.95940 | 33760 ft | 458 kts | 54° |
| 2026-05-03 21:04 | 34.80297 | -116.92782 | 34074 ft | 458 kts | 54° |
| 2026-05-03 21:04 | 34.82144 | -116.89624 | 34409 ft | 457 kts | 54° |
| 2026-05-03 21:04 | 34.83986 | -116.86474 | 34748 ft | 456 kts | 54° |
| 2026-05-03 21:05 | 34.85824 | -116.83334 | 35081 ft | 455 kts | 54° |
| 2026-05-03 21:05 | 34.87656 | -116.80202 | 35411 ft | 453 kts | 54° |
| 2026-05-03 21:05 | 34.89481 | -116.77074 | 35712 ft | 453 kts | 54° |
| 2026-05-03 21:05 | 34.91303 | -116.73951 | 36003 ft | 452 kts | 53° |
| 2026-05-03 21:06 | 34.93315 | -116.71019 | 36258 ft | 451 kts | 47° |
| 2026-05-03 21:06 | 34.95452 | -116.68221 | 36497 ft | 451 kts | 47° |
| 2026-05-03 21:06 | 34.97589 | -116.65422 | 36726 ft | 451 kts | 47° |
| 2026-05-03 21:06 | 34.99721 | -116.62619 | 36932 ft | 451 kts | 47° |
| 2026-05-03 21:07 | 35.03977 | -116.57005 | 37009 ft | 450 kts | 47° |
| 2026-05-03 21:07 | 35.08218 | -116.51407 | 37009 ft | 450 kts | 47° |
| 2026-05-03 21:08 | 35.12461 | -116.45797 | 37009 ft | 449 kts | 47° |
| 2026-05-03 21:08 | 35.16692 | -116.40192 | 37009 ft | 448 kts | 47° |
| 2026-05-03 21:09 | 35.20908 | -116.34591 | 37009 ft | 447 kts | 47° |
| 2026-05-03 21:09 | 35.25126 | -116.28982 | 37005 ft | 448 kts | 47° |
| 2026-05-03 21:10 | 35.29347 | -116.23366 | 37008 ft | 449 kts | 47° |
| 2026-05-03 21:10 | 35.33574 | -116.17728 | 37017 ft | 449 kts | 47° |
| 2026-05-03 21:11 | 35.37799 | -116.12086 | 37026 ft | 449 kts | 47° |
| 2026-05-03 21:11 | 35.41986 | -116.06482 | 37024 ft | 448 kts | 47° |
| 2026-05-03 21:12 | 35.46196 | -116.00835 | 37018 ft | 449 kts | 47° |
| 2026-05-03 21:12 | 35.50410 | -115.95175 | 37008 ft | 450 kts | 47° |
| 2026-05-03 21:13 | 35.54637 | -115.89504 | 37006 ft | 451 kts | 47° |
| 2026-05-03 21:13 | 35.58865 | -115.83822 | 37009 ft | 451 kts | 47° |
| 2026-05-03 21:14 | 35.63093 | -115.78114 | 37015 ft | 452 kts | 47° |
| 2026-05-03 21:14 | 35.67297 | -115.72373 | 37016 ft | 452 kts | 48° |
| 2026-05-03 21:15 | 35.71481 | -115.66599 | 37014 ft | 452 kts | 48° |
| 2026-05-03 21:15 | 35.75667 | -115.60816 | 37025 ft | 452 kts | 48° |
| 2026-05-03 21:16 | 35.79854 | -115.55042 | 37026 ft | 452 kts | 48° |
| 2026-05-03 21:16 | 35.84032 | -115.49274 | 37012 ft | 452 kts | 48° |
| 2026-05-03 21:17 | 35.87512 | -115.44461 | 37010 ft | 453 kts | 48° |
| 2026-05-03 21:17 | 35.92403 | -115.37669 | 37011 ft | 453 kts | 48° |
| 2026-05-03 21:18 | 35.96591 | -115.31856 | 37022 ft | 453 kts | 48° |
| 2026-05-03 21:18 | 36.00770 | -115.26037 | 37028 ft | 453 kts | 48° |
| 2026-05-03 21:19 | 36.04939 | -115.20217 | 37030 ft | 452 kts | 48° |
| 2026-05-03 21:19 | 36.09224 | -115.14627 | 37032 ft | 450 kts | 40° |
| 2026-05-03 21:20 | 36.13955 | -115.09553 | 37032 ft | 450 kts | 40° |
| 2026-05-03 21:20 | 36.18679 | -115.04480 | 37030 ft | 449 kts | 41° |
| 2026-05-03 21:21 | 36.23384 | -114.99405 | 37025 ft | 449 kts | 41° |
| 2026-05-03 21:21 | 36.28088 | -114.94315 | 37023 ft | 449 kts | 41° |
| 2026-05-03 21:22 | 36.32793 | -114.89223 | 37019 ft | 449 kts | 41° |
| 2026-05-03 21:22 | 36.37499 | -114.84120 | 37014 ft | 449 kts | 41° |
| 2026-05-03 21:23 | 36.42205 | -114.78998 | 37018 ft | 450 kts | 41° |
| 2026-05-03 21:23 | 36.46912 | -114.73878 | 37024 ft | 450 kts | 41° |
| 2026-05-03 21:24 | 36.51622 | -114.68752 | 37028 ft | 450 kts | 41° |
| 2026-05-03 21:24 | 36.56330 | -114.63624 | 37031 ft | 449 kts | 41° |
| 2026-05-03 21:25 | 36.61028 | -114.58506 | 37024 ft | 449 kts | 41° |
| 2026-05-03 21:25 | 36.65722 | -114.53373 | 37026 ft | 449 kts | 41° |
| 2026-05-03 21:26 | 36.70409 | -114.48240 | 37022 ft | 448 kts | 39° |
| 2026-05-03 21:26 | 36.75584 | -114.43927 | 37019 ft | 448 kts | 32° |
| 2026-05-03 21:27 | 36.80866 | -114.39790 | 37018 ft | 448 kts | 32° |
| 2026-05-03 21:27 | 36.86155 | -114.35649 | 37014 ft | 449 kts | 32° |
| 2026-05-03 21:28 | 36.91446 | -114.31490 | 37003 ft | 450 kts | 32° |
| 2026-05-03 21:28 | 36.96740 | -114.27317 | 37007 ft | 451 kts | 32° |
| 2026-05-03 21:29 | 37.02048 | -114.23138 | 37018 ft | 451 kts | 32° |
| 2026-05-03 21:29 | 37.07350 | -114.18946 | 37019 ft | 451 kts | 32° |
| 2026-05-03 21:30 | 37.12616 | -114.14770 | 37017 ft | 451 kts | 32° |
| 2026-05-03 21:30 | 37.17924 | -114.10568 | 37018 ft | 451 kts | 32° |
| 2026-05-03 21:31 | 37.23230 | -114.06356 | 37019 ft | 451 kts | 32° |
| 2026-05-03 21:31 | 37.28534 | -114.02135 | 37019 ft | 451 kts | 32° |
| 2026-05-03 21:32 | 37.33830 | -113.97914 | 36976 ft | 450 kts | 32° |
| 2026-05-03 21:32 | 37.36476 | -113.95803 | 36381 ft | 451 kts | 32° |
| 2026-05-03 21:32 | 37.39124 | -113.93686 | 35727 ft | 451 kts | 32° |
| 2026-05-03 21:33 | 37.41774 | -113.91565 | 35183 ft | 450 kts | 32° |
| 2026-05-03 21:33 | 37.44415 | -113.89452 | 34983 ft | 452 kts | 32° |
| 2026-05-03 21:33 | 37.49757 | -113.85181 | 35005 ft | 457 kts | 32° |
| 2026-05-03 21:34 | 37.55126 | -113.80881 | 35011 ft | 458 kts | 32° |
| 2026-05-03 21:34 | 37.60497 | -113.76569 | 35008 ft | 457 kts | 32° |
| 2026-05-03 21:35 | 37.65856 | -113.72253 | 35007 ft | 457 kts | 32° |
| 2026-05-03 21:35 | 37.71197 | -113.67940 | 35010 ft | 456 kts | 32° |
| 2026-05-03 21:36 | 37.76538 | -113.63621 | 35005 ft | 456 kts | 32° |
| 2026-05-03 21:36 | 37.81879 | -113.59305 | 35012 ft | 456 kts | 32° |
| 2026-05-03 21:37 | 37.87217 | -113.54981 | 35010 ft | 455 kts | 32° |
| 2026-05-03 21:37 | 37.92537 | -113.50623 | 35010 ft | 455 kts | 35° |
| 2026-05-03 21:38 | 37.97367 | -113.45437 | 35012 ft | 455 kts | 41° |
| 2026-05-03 21:38 | 38.02086 | -113.40084 | 35010 ft | 455 kts | 41° |
| 2026-05-03 21:39 | 38.06811 | -113.34730 | 35008 ft | 455 kts | 41° |
| 2026-05-03 21:39 | 38.11527 | -113.29364 | 35010 ft | 455 kts | 41° |
| 2026-05-03 21:40 | 38.16243 | -113.23996 | 35007 ft | 455 kts | 41° |
| 2026-05-03 21:40 | 38.20956 | -113.18619 | 35009 ft | 455 kts | 41° |
| 2026-05-03 21:41 | 38.25664 | -113.13228 | 35007 ft | 455 kts | 42° |
| 2026-05-03 21:41 | 38.30370 | -113.07835 | 35006 ft | 455 kts | 41° |
| 2026-05-03 21:42 | 38.35184 | -113.02689 | 35011 ft | 455 kts | 34° |
| 2026-05-03 21:42 | 38.40715 | -112.98830 | 35014 ft | 454 kts | 22° |
| 2026-05-03 21:43 | 38.46558 | -112.95740 | 35013 ft | 455 kts | 22° |
| 2026-05-03 21:43 | 38.52397 | -112.92626 | 35011 ft | 455 kts | 22° |
| 2026-05-03 21:44 | 38.58236 | -112.89505 | 35007 ft | 455 kts | 22° |
| 2026-05-03 21:44 | 38.64074 | -112.86382 | 35010 ft | 455 kts | 22° |
| 2026-05-03 21:45 | 38.69909 | -112.83246 | 35008 ft | 455 kts | 22° |
| 2026-05-03 21:45 | 38.75745 | -112.80110 | 35008 ft | 455 kts | 22° |
| 2026-05-03 21:46 | 38.81579 | -112.76963 | 35011 ft | 455 kts | 22° |
| 2026-05-03 21:46 | 38.87409 | -112.73822 | 35011 ft | 454 kts | 22° |
| 2026-05-03 21:47 | 38.93236 | -112.70689 | 35013 ft | 454 kts | 22° |
| 2026-05-03 21:47 | 38.99057 | -112.67537 | 35011 ft | 454 kts | 22° |
| 2026-05-03 21:48 | 39.04868 | -112.64379 | 35010 ft | 454 kts | 22° |
| 2026-05-03 21:48 | 39.10683 | -112.61214 | 35010 ft | 454 kts | 22° |
| 2026-05-03 21:49 | 39.16460 | -112.58068 | 34798 ft | 454 kts | 22° |
| 2026-05-03 21:49 | 39.19373 | -112.56484 | 34555 ft | 454 kts | 22° |
| 2026-05-03 21:49 | 39.22323 | -112.54879 | 34301 ft | 454 kts | 22° |
| 2026-05-03 21:50 | 39.25191 | -112.53317 | 34059 ft | 455 kts | 22° |
| 2026-05-03 21:50 | 39.28105 | -112.51723 | 33808 ft | 455 kts | 22° |
| 2026-05-03 21:50 | 39.31069 | -112.50286 | 33558 ft | 455 kts | 15° |
| 2026-05-03 21:50 | 39.34134 | -112.49242 | 33162 ft | 456 kts | 14° |
| 2026-05-03 21:51 | 39.37197 | -112.48226 | 32590 ft | 453 kts | 14° |
| 2026-05-03 21:51 | 39.40235 | -112.47228 | 32026 ft | 450 kts | 14° |
| 2026-05-03 21:51 | 39.43267 | -112.46235 | 31464 ft | 447 kts | 14° |
| 2026-05-03 21:51 | 39.46267 | -112.45250 | 30910 ft | 444 kts | 14° |
| 2026-05-03 21:52 | 39.49252 | -112.44266 | 30362 ft | 441 kts | 14° |
| 2026-05-03 21:52 | 39.52215 | -112.43281 | 29822 ft | 438 kts | 14° |
| 2026-05-03 21:52 | 39.54206 | -112.42618 | 29460 ft | 436 kts | 14° |
| 2026-05-03 21:52 | 39.57130 | -112.41641 | 28931 ft | 432 kts | 14° |
| 2026-05-03 21:53 | 39.60031 | -112.40675 | 28405 ft | 429 kts | 14° |
| 2026-05-03 21:53 | 39.62908 | -112.39716 | 27892 ft | 425 kts | 14° |
| 2026-05-03 21:53 | 39.65754 | -112.38766 | 27389 ft | 421 kts | 14° |
| 2026-05-03 21:53 | 39.68580 | -112.37823 | 26894 ft | 417 kts | 14° |
| 2026-05-03 21:54 | 39.71377 | -112.36889 | 26405 ft | 413 kts | 14° |
| 2026-05-03 21:54 | 39.74143 | -112.35961 | 25942 ft | 408 kts | 14° |
| 2026-05-03 21:54 | 39.76879 | -112.35042 | 25487 ft | 403 kts | 14° |
| 2026-05-03 21:54 | 39.79579 | -112.34136 | 25038 ft | 399 kts | 14° |
| 2026-05-03 21:55 | 39.82246 | -112.33242 | 24600 ft | 394 kts | 14° |
| 2026-05-03 21:55 | 39.84885 | -112.32356 | 24164 ft | 389 kts | 14° |
| 2026-05-03 21:55 | 39.87495 | -112.31477 | 23726 ft | 385 kts | 14° |
| 2026-05-03 21:55 | 39.90043 | -112.30617 | 23296 ft | 381 kts | 14° |
| 2026-05-03 21:56 | 39.92599 | -112.29754 | 22861 ft | 378 kts | 14° |
| 2026-05-03 21:56 | 39.95131 | -112.28900 | 22428 ft | 374 kts | 14° |
| 2026-05-03 21:56 | 39.97640 | -112.28056 | 21996 ft | 371 kts | 14° |
| 2026-05-03 21:56 | 40.00126 | -112.27220 | 21562 ft | 367 kts | 14° |
| 2026-05-03 21:57 | 40.02591 | -112.26387 | 21130 ft | 364 kts | 14° |
| 2026-05-03 21:57 | 40.05036 | -112.25561 | 20698 ft | 362 kts | 14° |
| 2026-05-03 21:57 | 40.07463 | -112.24743 | 20268 ft | 359 kts | 14° |
| 2026-05-03 21:57 | 40.09865 | -112.23936 | 19840 ft | 356 kts | 14° |
| 2026-05-03 21:58 | 40.12254 | -112.23132 | 19413 ft | 353 kts | 14° |
| 2026-05-03 21:58 | 40.14621 | -112.22331 | 18997 ft | 350 kts | 14° |
| 2026-05-03 21:58 | 40.16969 | -112.21534 | 18579 ft | 347 kts | 14° |
| 2026-05-03 21:58 | 40.19297 | -112.20743 | 18163 ft | 344 kts | 14° |
| 2026-05-03 21:59 | 40.21605 | -112.19955 | 17777 ft | 341 kts | 14° |
| 2026-05-03 21:59 | 40.23893 | -112.19172 | 17376 ft | 338 kts | 14° |
| 2026-05-03 21:59 | 40.26163 | -112.18396 | 16970 ft | 336 kts | 14° |
| 2026-05-03 21:59 | 40.28418 | -112.17628 | 16581 ft | 334 kts | 14° |
| 2026-05-03 22:00 | 40.30658 | -112.16867 | 16186 ft | 331 kts | 14° |
| 2026-05-03 22:00 | 40.32884 | -112.16111 | 15803 ft | 329 kts | 14° |
| 2026-05-03 22:00 | 40.35067 | -112.15216 | 15191 ft | 334 kts | 26° |
| 2026-05-03 22:00 | 40.36985 | -112.13475 | 14754 ft | 331 kts | 39° |
| 2026-05-03 22:01 | 40.38712 | -112.11604 | 14613 ft | 313 kts | 39° |
| 2026-05-03 22:01 | 40.40348 | -112.09812 | 14281 ft | 303 kts | 39° |
| 2026-05-03 22:01 | 40.41953 | -112.08050 | 13790 ft | 299 kts | 39° |
| 2026-05-03 22:01 | 40.43513 | -112.06337 | 13562 ft | 285 kts | 39° |
| 2026-05-03 22:02 | 40.45006 | -112.04696 | 13255 ft | 276 kts | 39° |
| 2026-05-03 22:02 | 40.46472 | -112.03083 | 12798 ft | 273 kts | 39° |
| 2026-05-03 22:02 | 40.47913 | -112.01498 | 12333 ft | 268 kts | 39° |
| 2026-05-03 22:02 | 40.49337 | -111.99931 | 11754 ft | 266 kts | 39° |
| 2026-05-03 22:03 | 40.50731 | -111.98396 | 11193 ft | 264 kts | 39° |
| 2026-05-03 22:03 | 40.52132 | -111.96854 | 10644 ft | 261 kts | 39° |
| 2026-05-03 22:03 | 40.53685 | -111.95700 | 10101 ft | 257 kts | 11° |
| 2026-05-03 22:03 | 40.55416 | -111.95910 | 9565 ft | 251 kts | 334° |
| 2026-05-03 22:04 | 40.56889 | -111.97129 | 8981 ft | 251 kts | 328° |
| 2026-05-03 22:04 | 40.58541 | -111.97738 | 8422 ft | 249 kts | 1° |
| 2026-05-03 22:04 | 40.60274 | -111.97577 | 7779 ft | 251 kts | 359° |
| 2026-05-03 22:04 | 40.62012 | -111.97720 | 7293 ft | 248 kts | 354° |
| 2026-05-03 22:05 | 40.63698 | -111.97938 | 6941 ft | 239 kts | 354° |
| 2026-05-03 22:05 | 40.65306 | -111.98132 | 6654 ft | 225 kts | 354° |
| 2026-05-03 22:05 | 40.66813 | -111.98307 | 6342 ft | 209 kts | 354° |
| 2026-05-03 22:05 | 40.68180 | -111.98465 | 6094 ft | 185 kts | 354° |
| 2026-05-03 22:06 | 40.69387 | -111.98604 | 5841 ft | 166 kts | 354° |
| 2026-05-03 22:06 | 40.70503 | -111.98734 | 5629 ft | 158 kts | 354° |
| 2026-05-03 22:06 | 40.71588 | -111.98860 | 5415 ft | 155 kts | 354° |
| 2026-05-03 22:06 | 40.72658 | -111.98985 | 5221 ft | 154 kts | 354° |
| 2026-05-03 22:07 | 40.73718 | -111.99111 | 5021 ft | 153 kts | 354° |
| 2026-05-03 22:07 | 40.74776 | -111.99237 | 4821 ft | 152 kts | 354° |
| 2026-05-03 22:07 | 40.75830 | -111.99357 | 4621 ft | 152 kts | 354° |
| 2026-05-03 22:07 | 40.76879 | -111.99475 | 4402 ft | 151 kts | 354° |
| 2026-05-03 22:08 | 40.77921 | -111.99591 | 4245 ft | 145 kts | 355° |
| 2026-05-03 22:08 | 40.78818 | -111.99710 | 4235 ft | 108 kts | 353° |
| 2026-05-03 22:08 | 40.79390 | -111.99765 | 4232 ft | 58 kts | 356° |
| 2026-05-03 22:08 | 40.79620 | -111.99784 | 4231 ft | 8 kts | 359° |
| 2026-05-03 22:09 | 40.79695 | -111.99782 | 4232 ft | 19 kts | 7° |
| 2026-05-03 22:09 | 40.79823 | -111.99704 | 4234 ft | 19 kts | 44° |
| 2026-05-03 22:09 | 40.79875 | -111.99583 | 4235 ft | 13 kts | 73° |
| 2026-05-03 22:10 | 40.79761 | -111.99499 | 4235 ft | 10 kts | 178° |
| 2026-05-03 22:10 | 40.79697 | -111.99497 | 4235 ft | 9 kts | 179° |
| 2026-05-03 22:10 | 40.79641 | -111.99495 | 4235 ft | 7 kts | 179° |
| 2026-05-03 22:10 | 40.79594 | -111.99491 | 4235 ft | 6 kts | 173° |
| 2026-05-03 22:11 | 40.79557 | -111.99484 | 4235 ft | 5 kts | 172° |
| 2026-05-03 22:11 | 40.78833 | -111.98768 | 4233 ft | 0 kts | 5° |